Terminal Aerodrome Forecast
Issued by NWS

Home | Current Version | Previous Version | Text Only | Print | Product List | Glossary On
Versions: 1 2 3 4 5 6 7 8 9 10 11 12 13 14 15 16 17 18 19 20 21 22
000
FTUS43 KAPX 271120
TAFMBL
TAF
KMBL 271120Z 2712/2812 VRB03KT 5SM BR SCT015 OVC025
     FM271300 14004KT 1 1/2SM -RA BR OVC015
     FM271700 21006KT 2SM -RA BR OVC008 WS020/22040KT
     FM272100 28011G19KT P6SM VCSH OVC018
     FM272300 30009KT P6SM BKN028
     FM280100 30009KT P6SM BKN035
      AMD LTD TO CLD VIS AND WIND=

USA.gov is the U.S. government's official web portal to all federal, state and local government web resources and services.